sensor_id;sensor_type;location;lat;lon;timestamp;temperature;humidity
837;DHT22;400;53.550;9.932;2023-12-29T00:01:33;11.50;1.00
837;DHT22;400;53.550;9.932;2023-12-29T00:04:00;11.50;1.00
837;DHT22;400;53.550;9.932;2023-12-29T00:06:27;11.60;1.00
837;DHT22;400;53.550;9.932;2023-12-29T00:08:54;11.50;1.00
837;DHT22;400;53.550;9.932;2023-12-29T00:11:21;11.40;1.00
837;DHT22;400;53.550;9.932;2023-12-29T00:13:49;11.50;1.00
837;DHT22;400;53.550;9.932;2023-12-29T00:16:16;11.40;1.00
837;DHT22;400;53.550;9.932;2023-12-29T00:18:43;11.40;1.00
837;DHT22;400;53.550;9.932;2023-12-29T00:21:11;11.40;1.00
837;DHT22;400;53.550;9.932;2023-12-29T00:23:38;11.40;1.00
837;DHT22;400;53.550;9.932;2023-12-29T00:26:06;11.40;1.00
837;DHT22;400;53.550;9.932;2023-12-29T00:28:35;11.40;1.00
837;DHT22;400;53.550;9.932;2023-12-29T00:31:08;11.40;1.00
837;DHT22;400;53.550;9.932;2023-12-29T00:33:36;11.30;1.00
837;DHT22;400;53.550;9.932;2023-12-29T00:36:04;11.30;1.00
837;DHT22;400;53.550;9.932;2023-12-29T00:38:31;11.30;1.00
837;DHT22;400;53.550;9.932;2023-12-29T00:40:58;11.20;1.00
837;DHT22;400;53.550;9.932;2023-12-29T00:43:25;11.20;1.00
837;DHT22;400;53.550;9.932;2023-12-29T00:45:52;11.20;1.00
837;DHT22;400;53.550;9.932;2023-12-29T00:48:20;11.20;1.00
837;DHT22;400;53.550;9.932;2023-12-29T00:50:47;11.30;1.00
837;DHT22;400;53.550;9.932;2023-12-29T00:53:14;11.30;1.00
837;DHT22;400;53.550;9.932;2023-12-29T00:55:41;11.30;1.00
837;DHT22;400;53.550;9.932;2023-12-29T00:58:08;11.20;1.00
837;DHT22;400;53.550;9.932;2023-12-29T01:00:34;11.20;1.00
837;DHT22;400;53.550;9.932;2023-12-29T01:03:01;11.30;1.00
837;DHT22;400;53.550;9.932;2023-12-29T01:05:32;11.30;1.00
837;DHT22;400;53.550;9.932;2023-12-29T01:07:58;11.30;1.00
837;DHT22;400;53.550;9.932;2023-12-29T01:10:26;11.20;1.00
837;DHT22;400;53.550;9.932;2023-12-29T01:12:53;11.30;1.00
837;DHT22;400;53.550;9.932;2023-12-29T01:15:19;11.40;1.00
837;DHT22;400;53.550;9.932;2023-12-29T01:17:48;11.40;1.00
837;DHT22;400;53.550;9.932;2023-12-29T01:20:15;11.30;1.00
837;DHT22;400;53.550;9.932;2023-12-29T01:22:43;11.40;1.00
837;DHT22;400;53.550;9.932;2023-12-29T01:25:10;11.40;1.00
837;DHT22;400;53.550;9.932;2023-12-29T01:27:37;11.40;1.00
837;DHT22;400;53.550;9.932;2023-12-29T01:30:05;11.40;1.00
837;DHT22;400;53.550;9.932;2023-12-29T01:32:32;11.30;1.00
837;DHT22;400;53.550;9.932;2023-12-29T01:34:59;11.40;1.00
837;DHT22;400;53.550;9.932;2023-12-29T01:37:26;11.40;1.00
837;DHT22;400;53.550;9.932;2023-12-29T01:39:54;11.20;1.00
837;DHT22;400;53.550;9.932;2023-12-29T01:42:21;11.20;1.00
837;DHT22;400;53.550;9.932;2023-12-29T01:44:48;11.20;1.00
837;DHT22;400;53.550;9.932;2023-12-29T01:47:18;11.20;1.00
837;DHT22;400;53.550;9.932;2023-12-29T01:49:45;11.20;1.00
837;DHT22;400;53.550;9.932;2023-12-29T01:52:14;11.30;1.00
837;DHT22;400;53.550;9.932;2023-12-29T01:54:41;11.30;1.00
837;DHT22;400;53.550;9.932;2023-12-29T01:57:09;11.30;1.00
837;DHT22;400;53.550;9.932;2023-12-29T01:59:37;11.20;1.00
837;DHT22;400;53.550;9.932;2023-12-29T02:02:04;11.20;1.00
837;DHT22;400;53.550;9.932;2023-12-29T02:04:32;11.20;1.00
837;DHT22;400;53.550;9.932;2023-12-29T02:06:59;11.20;1.00
837;DHT22;400;53.550;9.932;2023-12-29T02:09:26;11.30;1.00
837;DHT22;400;53.550;9.932;2023-12-29T02:11:53;11.20;1.00
837;DHT22;400;53.550;9.932;2023-12-29T02:14:21;11.30;1.00
837;DHT22;400;53.550;9.932;2023-12-29T02:16:55;11.30;1.00
837;DHT22;400;53.550;9.932;2023-12-29T02:19:37;11.30;1.00
837;DHT22;400;53.550;9.932;2023-12-29T02:22:06;11.20;1.00
837;DHT22;400;53.550;9.932;2023-12-29T02:24:33;11.30;1.00
837;DHT22;400;53.550;9.932;2023-12-29T02:27:09;11.30;1.00
837;DHT22;400;53.550;9.932;2023-12-29T02:29:38;11.30;1.00
837;DHT22;400;53.550;9.932;2023-12-29T02:32:10;11.30;1.00
837;DHT22;400;53.550;9.932;2023-12-29T02:34:39;11.30;1.00
837;DHT22;400;53.550;9.932;2023-12-29T02:37:07;11.30;1.00
837;DHT22;400;53.550;9.932;2023-12-29T02:39:34;11.30;1.00
837;DHT22;400;53.550;9.932;2023-12-29T02:42:03;11.30;1.00
837;DHT22;400;53.550;9.932;2023-12-29T02:44:30;11.20;1.00
837;DHT22;400;53.550;9.932;2023-12-29T02:46:57;11.30;1.00
837;DHT22;400;53.550;9.932;2023-12-29T02:49:26;11.30;1.00
837;DHT22;400;53.550;9.932;2023-12-29T02:51:52;11.30;1.00
837;DHT22;400;53.550;9.932;2023-12-29T02:54:19;11.30;1.00
837;DHT22;400;53.550;9.932;2023-12-29T02:56:46;11.20;1.00
837;DHT22;400;53.550;9.932;2023-12-29T02:59:14;11.20;1.00
837;DHT22;400;53.550;9.932;2023-12-29T03:01:41;11.30;1.00
837;DHT22;400;53.550;9.932;2023-12-29T03:04:08;11.30;1.00
837;DHT22;400;53.550;9.932;2023-12-29T03:06:35;11.30;1.00
837;DHT22;400;53.550;9.932;2023-12-29T03:09:05;11.30;1.00
837;DHT22;400;53.550;9.932;2023-12-29T03:11:32;11.30;1.00
837;DHT22;400;53.550;9.932;2023-12-29T03:13:59;11.20;1.00
837;DHT22;400;53.550;9.932;2023-12-29T03:16:27;11.30;1.00
837;DHT22;400;53.550;9.932;2023-12-29T03:18:54;11.30;1.00
837;DHT22;400;53.550;9.932;2023-12-29T03:21:20;11.30;1.00
837;DHT22;400;53.550;9.932;2023-12-29T03:23:47;11.20;1.00
837;DHT22;400;53.550;9.932;2023-12-29T03:26:14;11.20;1.00
837;DHT22;400;53.550;9.932;2023-12-29T03:28:41;11.20;1.00
837;DHT22;400;53.550;9.932;2023-12-29T03:31:08;11.20;1.00
837;DHT22;400;53.550;9.932;2023-12-29T03:33:36;11.10;1.00
837;DHT22;400;53.550;9.932;2023-12-29T03:36:03;11.20;1.00
837;DHT22;400;53.550;9.932;2023-12-29T03:38:30;11.10;1.00
837;DHT22;400;53.550;9.932;2023-12-29T03:40:59;11.10;1.00
837;DHT22;400;53.550;9.932;2023-12-29T03:43:28;11.00;1.00
837;DHT22;400;53.550;9.932;2023-12-29T03:45:56;11.10;1.00
837;DHT22;400;53.550;9.932;2023-12-29T03:48:23;11.10;1.00
837;DHT22;400;53.550;9.932;2023-12-29T03:50:51;11.00;1.00
837;DHT22;400;53.550;9.932;2023-12-29T03:53:18;11.00;1.00
837;DHT22;400;53.550;9.932;2023-12-29T03:55:45;11.10;1.00
837;DHT22;400;53.550;9.932;2023-12-29T03:58:12;11.10;1.00
837;DHT22;400;53.550;9.932;2023-12-29T04:00:39;11.00;1.00
837;DHT22;400;53.550;9.932;2023-12-29T04:03:07;10.90;1.00
837;DHT22;400;53.550;9.932;2023-12-29T04:05:34;11.00;1.00
837;DHT22;400;53.550;9.932;2023-12-29T04:08:02;10.80;1.00
837;DHT22;400;53.550;9.932;2023-12-29T04:10:29;10.90;1.00
837;DHT22;400;53.550;9.932;2023-12-29T04:12:56;10.70;1.00
837;DHT22;400;53.550;9.932;2023-12-29T04:15:23;10.50;1.00
837;DHT22;400;53.550;9.932;2023-12-29T04:17:50;10.40;1.00
837;DHT22;400;53.550;9.932;2023-12-29T04:20:16;10.10;1.00
837;DHT22;400;53.550;9.932;2023-12-29T04:22:43;10.10;1.00
837;DHT22;400;53.550;9.932;2023-12-29T04:25:11;9.50;1.00
837;DHT22;400;53.550;9.932;2023-12-29T04:27:39;9.30;1.00
837;DHT22;400;53.550;9.932;2023-12-29T04:30:07;9.40;1.00
837;DHT22;400;53.550;9.932;2023-12-29T04:32:34;9.40;1.00
837;DHT22;400;53.550;9.932;2023-12-29T04:35:01;9.20;1.00
837;DHT22;400;53.550;9.932;2023-12-29T04:37:28;9.20;1.00
837;DHT22;400;53.550;9.932;2023-12-29T04:39:55;9.30;1.00
837;DHT22;400;53.550;9.932;2023-12-29T04:42:23;9.20;1.00
837;DHT22;400;53.550;9.932;2023-12-29T04:44:49;9.30;1.00
837;DHT22;400;53.550;9.932;2023-12-29T04:47:16;9.30;1.00
837;DHT22;400;53.550;9.932;2023-12-29T04:49:43;9.30;1.00
837;DHT22;400;53.550;9.932;2023-12-29T04:52:10;9.30;1.00
837;DHT22;400;53.550;9.932;2023-12-29T04:54:37;9.50;1.00
837;DHT22;400;53.550;9.932;2023-12-29T04:57:04;9.50;1.00
837;DHT22;400;53.550;9.932;2023-12-29T04:59:32;9.30;1.00
837;DHT22;400;53.550;9.932;2023-12-29T05:01:59;9.50;1.00
837;DHT22;400;53.550;9.932;2023-12-29T05:04:26;9.50;1.00
837;DHT22;400;53.550;9.932;2023-12-29T05:06:53;9.50;1.00
837;DHT22;400;53.550;9.932;2023-12-29T05:09:20;9.50;1.00
837;DHT22;400;53.550;9.932;2023-12-29T05:11:47;9.50;1.00
837;DHT22;400;53.550;9.932;2023-12-29T05:14:14;9.40;1.00
837;DHT22;400;53.550;9.932;2023-12-29T05:16:43;9.50;1.00
837;DHT22;400;53.550;9.932;2023-12-29T05:19:11;9.60;1.00
837;DHT22;400;53.550;9.932;2023-12-29T05:21:38;9.60;1.00
837;DHT22;400;53.550;9.932;2023-12-29T05:24:05;9.70;1.00
837;DHT22;400;53.550;9.932;2023-12-29T05:26:35;9.70;1.00
837;DHT22;400;53.550;9.932;2023-12-29T05:29:03;9.60;1.00
837;DHT22;400;53.550;9.932;2023-12-29T05:31:30;9.70;1.00
837;DHT22;400;53.550;9.932;2023-12-29T05:33:58;9.60;1.00
837;DHT22;400;53.550;9.932;2023-12-29T05:36:25;9.60;1.00
837;DHT22;400;53.550;9.932;2023-12-29T05:38:52;9.60;1.00
837;DHT22;400;53.550;9.932;2023-12-29T05:41:19;9.60;1.00
837;DHT22;400;53.550;9.932;2023-12-29T05:43:46;9.60;1.00
837;DHT22;400;53.550;9.932;2023-12-29T05:46:13;9.70;1.00
837;DHT22;400;53.550;9.932;2023-12-29T05:48:40;9.70;1.00
837;DHT22;400;53.550;9.932;2023-12-29T05:51:09;9.70;1.00
837;DHT22;400;53.550;9.932;2023-12-29T05:53:36;9.80;1.00
837;DHT22;400;53.550;9.932;2023-12-29T05:56:03;9.80;1.00
837;DHT22;400;53.550;9.932;2023-12-29T05:58:31;9.80;1.00
837;DHT22;400;53.550;9.932;2023-12-29T06:00:58;9.70;1.00
837;DHT22;400;53.550;9.932;2023-12-29T06:03:26;9.60;1.00
837;DHT22;400;53.550;9.932;2023-12-29T06:05:53;9.60;1.00
837;DHT22;400;53.550;9.932;2023-12-29T06:08:21;9.60;1.00
837;DHT22;400;53.550;9.932;2023-12-29T06:10:48;9.50;1.00
837;DHT22;400;53.550;9.932;2023-12-29T06:13:15;9.60;1.00
837;DHT22;400;53.550;9.932;2023-12-29T06:15:42;9.60;1.00
837;DHT22;400;53.550;9.932;2023-12-29T06:18:09;9.70;1.00
837;DHT22;400;53.550;9.932;2023-12-29T06:20:36;9.70;1.00
837;DHT22;400;53.550;9.932;2023-12-29T06:23:03;9.70;1.00
837;DHT22;400;53.550;9.932;2023-12-29T06:25:31;9.80;1.00
837;DHT22;400;53.550;9.932;2023-12-29T06:28:00;9.80;1.00
837;DHT22;400;53.550;9.932;2023-12-29T06:30:28;9.90;1.00
837;DHT22;400;53.550;9.932;2023-12-29T06:32:55;9.90;1.00
837;DHT22;400;53.550;9.932;2023-12-29T06:35:22;9.90;1.00
837;DHT22;400;53.550;9.932;2023-12-29T06:37:50;9.90;1.00
837;DHT22;400;53.550;9.932;2023-12-29T06:40:20;9.90;1.00
837;DHT22;400;53.550;9.932;2023-12-29T06:42:51;9.90;1.00
837;DHT22;400;53.550;9.932;2023-12-29T06:45:19;9.90;1.00
837;DHT22;400;53.550;9.932;2023-12-29T06:47:46;9.90;1.00
837;DHT22;400;53.550;9.932;2023-12-29T06:50:14;9.90;1.00
837;DHT22;400;53.550;9.932;2023-12-29T06:52:44;9.90;1.00
837;DHT22;400;53.550;9.932;2023-12-29T06:55:16;9.80;1.00
837;DHT22;400;53.550;9.932;2023-12-29T06:57:54;9.90;1.00
837;DHT22;400;53.550;9.932;2023-12-29T07:00:22;9.80;1.00
837;DHT22;400;53.550;9.932;2023-12-29T07:02:53;9.90;1.00
837;DHT22;400;53.550;9.932;2023-12-29T07:05:20;9.90;1.00
837;DHT22;400;53.550;9.932;2023-12-29T07:07:47;9.90;1.00
837;DHT22;400;53.550;9.932;2023-12-29T07:10:14;9.90;1.00
837;DHT22;400;53.550;9.932;2023-12-29T07:12:41;9.90;1.00
837;DHT22;400;53.550;9.932;2023-12-29T07:15:10;9.90;1.00
837;DHT22;400;53.550;9.932;2023-12-29T07:17:40;9.90;1.00
837;DHT22;400;53.550;9.932;2023-12-29T07:20:07;9.90;1.00
837;DHT22;400;53.550;9.932;2023-12-29T07:22:35;10.00;1.00
837;DHT22;400;53.550;9.932;2023-12-29T07:25:03;9.90;1.00
837;DHT22;400;53.550;9.932;2023-12-29T07:27:30;10.00;1.00
837;DHT22;400;53.550;9.932;2023-12-29T07:30:00;10.00;1.00
837;DHT22;400;53.550;9.932;2023-12-29T07:32:30;10.00;1.00
837;DHT22;400;53.550;9.932;2023-12-29T07:34:58;10.00;1.00
837;DHT22;400;53.550;9.932;2023-12-29T07:37:25;10.00;1.00
837;DHT22;400;53.550;9.932;2023-12-29T07:39:52;10.10;1.00
837;DHT22;400;53.550;9.932;2023-12-29T07:42:19;10.10;1.00
837;DHT22;400;53.550;9.932;2023-12-29T07:44:46;10.10;1.00
837;DHT22;400;53.550;9.932;2023-12-29T07:47:13;10.10;1.00
837;DHT22;400;53.550;9.932;2023-12-29T07:49:45;10.10;1.00
837;DHT22;400;53.550;9.932;2023-12-29T07:52:21;10.10;1.00
837;DHT22;400;53.550;9.932;2023-12-29T07:54:53;10.10;1.00
837;DHT22;400;53.550;9.932;2023-12-29T07:57:26;10.10;1.00
837;DHT22;400;53.550;9.932;2023-12-29T08:00:00;10.10;1.00
837;DHT22;400;53.550;9.932;2023-12-29T08:02:32;10.10;1.00
837;DHT22;400;53.550;9.932;2023-12-29T08:05:01;10.20;1.00
837;DHT22;400;53.550;9.932;2023-12-29T08:07:30;10.20;1.00
837;DHT22;400;53.550;9.932;2023-12-29T08:10:03;10.20;1.00
837;DHT22;400;53.550;9.932;2023-12-29T08:12:33;10.20;1.00
837;DHT22;400;53.550;9.932;2023-12-29T08:15:00;10.30;1.00
837;DHT22;400;53.550;9.932;2023-12-29T08:17:27;10.30;1.00
837;DHT22;400;53.550;9.932;2023-12-29T08:19:55;10.20;1.00
837;DHT22;400;53.550;9.932;2023-12-29T08:22:29;10.20;1.00
837;DHT22;400;53.550;9.932;2023-12-29T08:24:56;10.20;1.00
837;DHT22;400;53.550;9.932;2023-12-29T08:27:24;10.20;1.00
837;DHT22;400;53.550;9.932;2023-12-29T08:29:54;10.20;1.00
837;DHT22;400;53.550;9.932;2023-12-29T08:32:20;10.20;1.00
837;DHT22;400;53.550;9.932;2023-12-29T08:34:48;10.20;1.00
837;DHT22;400;53.550;9.932;2023-12-29T08:37:16;10.20;1.00
837;DHT22;400;53.550;9.932;2023-12-29T08:39:50;10.30;1.00
837;DHT22;400;53.550;9.932;2023-12-29T08:42:17;10.30;1.00
837;DHT22;400;53.550;9.932;2023-12-29T08:44:44;10.30;1.00
837;DHT22;400;53.550;9.932;2023-12-29T08:47:12;10.30;1.00
837;DHT22;400;53.550;9.932;2023-12-29T08:49:39;10.40;1.00
837;DHT22;400;53.550;9.932;2023-12-29T08:52:06;10.40;1.00
837;DHT22;400;53.550;9.932;2023-12-29T08:54:34;10.40;1.00
837;DHT22;400;53.550;9.932;2023-12-29T08:57:03;10.40;1.00
837;DHT22;400;53.550;9.932;2023-12-29T08:59:32;10.40;1.00
837;DHT22;400;53.550;9.932;2023-12-29T09:01:59;10.50;1.00
837;DHT22;400;53.550;9.932;2023-12-29T09:04:25;10.50;1.00
837;DHT22;400;53.550;9.932;2023-12-29T09:06:52;10.60;1.00
837;DHT22;400;53.550;9.932;2023-12-29T09:09:19;10.50;1.00
837;DHT22;400;53.550;9.932;2023-12-29T09:11:49;10.40;1.00
837;DHT22;400;53.550;9.932;2023-12-29T09:14:24;10.10;1.00
837;DHT22;400;53.550;9.932;2023-12-29T09:16:58;9.70;1.00
837;DHT22;400;53.550;9.932;2023-12-29T09:19:25;9.50;1.00
837;DHT22;400;53.550;9.932;2023-12-29T09:21:52;9.40;1.00
837;DHT22;400;53.550;9.932;2023-12-29T09:24:19;9.10;1.00
837;DHT22;400;53.550;9.932;2023-12-29T09:26:47;9.10;1.00
837;DHT22;400;53.550;9.932;2023-12-29T09:29:16;9.10;1.00
837;DHT22;400;53.550;9.932;2023-12-29T09:31:47;9.20;1.00
837;DHT22;400;53.550;9.932;2023-12-29T09:34:14;9.20;1.00
837;DHT22;400;53.550;9.932;2023-12-29T09:36:41;9.20;1.00
837;DHT22;400;53.550;9.932;2023-12-29T09:39:08;9.10;1.00
837;DHT22;400;53.550;9.932;2023-12-29T09:41:37;9.20;1.00
837;DHT22;400;53.550;9.932;2023-12-29T09:44:13;9.30;1.00
837;DHT22;400;53.550;9.932;2023-12-29T09:46:45;9.40;7.60
837;DHT22;400;53.550;9.932;2023-12-29T09:49:17;9.50;1.00
837;DHT22;400;53.550;9.932;2023-12-29T09:51:45;9.60;1.00
837;DHT22;400;53.550;9.932;2023-12-29T09:54:13;9.70;1.00
837;DHT22;400;53.550;9.932;2023-12-29T09:56:41;9.70;1.00
837;DHT22;400;53.550;9.932;2023-12-29T09:59:11;9.70;1.00
837;DHT22;400;53.550;9.932;2023-12-29T10:01:41;9.80;1.00
837;DHT22;400;53.550;9.932;2023-12-29T10:04:11;9.80;1.00
837;DHT22;400;53.550;9.932;2023-12-29T10:06:41;9.70;1.00
837;DHT22;400;53.550;9.932;2023-12-29T10:09:10;9.80;1.00
837;DHT22;400;53.550;9.932;2023-12-29T10:11:42;9.70;1.00
837;DHT22;400;53.550;9.932;2023-12-29T10:14:22;9.60;1.00
837;DHT22;400;53.550;9.932;2023-12-29T10:17:01;9.70;1.00
837;DHT22;400;53.550;9.932;2023-12-29T10:19:40;9.70;1.00
837;DHT22;400;53.550;9.932;2023-12-29T10:22:18;9.70;1.00
837;DHT22;400;53.550;9.932;2023-12-29T10:24:46;9.70;1.00
837;DHT22;400;53.550;9.932;2023-12-29T10:27:14;9.70;1.00
837;DHT22;400;53.550;9.932;2023-12-29T10:29:41;9.70;1.00
837;DHT22;400;53.550;9.932;2023-12-29T10:32:09;9.70;1.00
837;DHT22;400;53.550;9.932;2023-12-29T10:34:42;9.80;1.00
837;DHT22;400;53.550;9.932;2023-12-29T10:37:11;9.80;1.00
837;DHT22;400;53.550;9.932;2023-12-29T10:39:55;9.80;1.00
837;DHT22;400;53.550;9.932;2023-12-29T10:42:22;9.90;1.00
837;DHT22;400;53.550;9.932;2023-12-29T10:45:05;9.90;1.00
837;DHT22;400;53.550;9.932;2023-12-29T10:47:32;9.90;1.00
837;DHT22;400;53.550;9.932;2023-12-29T10:50:02;9.90;1.00
837;DHT22;400;53.550;9.932;2023-12-29T10:52:31;9.90;1.00
837;DHT22;400;53.550;9.932;2023-12-29T10:55:07;9.90;1.00
837;DHT22;400;53.550;9.932;2023-12-29T10:57:40;9.90;1.00
837;DHT22;400;53.550;9.932;2023-12-29T11:00:09;9.80;1.00
837;DHT22;400;53.550;9.932;2023-12-29T11:02:38;9.90;1.00
837;DHT22;400;53.550;9.932;2023-12-29T11:05:09;9.90;1.00
837;DHT22;400;53.550;9.932;2023-12-29T11:07:37;9.90;1.00
837;DHT22;400;53.550;9.932;2023-12-29T11:10:06;9.90;1.00
837;DHT22;400;53.550;9.932;2023-12-29T11:12:35;9.90;1.00
837;DHT22;400;53.550;9.932;2023-12-29T11:15:06;10.00;1.00
837;DHT22;400;53.550;9.932;2023-12-29T11:17:36;10.00;1.00
837;DHT22;400;53.550;9.932;2023-12-29T11:20:04;10.00;1.00
837;DHT22;400;53.550;9.932;2023-12-29T11:22:42;10.00;1.00
837;DHT22;400;53.550;9.932;2023-12-29T11:25:13;10.10;1.00
837;DHT22;400;53.550;9.932;2023-12-29T11:27:46;10.10;1.00
837;DHT22;400;53.550;9.932;2023-12-29T11:30:16;10.20;1.00
837;DHT22;400;53.550;9.932;2023-12-29T11:32:47;10.20;1.00
837;DHT22;400;53.550;9.932;2023-12-29T11:35:19;10.20;1.00
837;DHT22;400;53.550;9.932;2023-12-29T11:38:18;10.20;1.00
837;DHT22;400;53.550;9.932;2023-12-29T11:40:52;10.20;1.00
837;DHT22;400;53.550;9.932;2023-12-29T11:43:25;10.20;1.00
837;DHT22;400;53.550;9.932;2023-12-29T11:45:53;10.20;1.00
837;DHT22;400;53.550;9.932;2023-12-29T11:48:54;10.10;1.00
837;DHT22;400;53.550;9.932;2023-12-29T11:51:30;10.20;1.00
837;DHT22;400;53.550;9.932;2023-12-29T11:54:05;10.20;1.00
837;DHT22;400;53.550;9.932;2023-12-29T11:56:37;10.30;1.00
837;DHT22;400;53.550;9.932;2023-12-29T11:59:18;10.30;1.00
837;DHT22;400;53.550;9.932;2023-12-29T12:01:56;10.30;1.00
837;DHT22;400;53.550;9.932;2023-12-29T12:04:37;10.30;1.00
837;DHT22;400;53.550;9.932;2023-12-29T12:07:07;10.30;1.00
837;DHT22;400;53.550;9.932;2023-12-29T12:09:37;10.30;1.00
837;DHT22;400;53.550;9.932;2023-12-29T12:12:05;10.30;1.00
837;DHT22;400;53.550;9.932;2023-12-29T12:14:51;10.30;1.00
837;DHT22;400;53.550;9.932;2023-12-29T12:17:29;10.30;1.00
837;DHT22;400;53.550;9.932;2023-12-29T12:19:59;10.30;1.00
837;DHT22;400;53.550;9.932;2023-12-29T12:22:30;10.40;1.00
837;DHT22;400;53.550;9.932;2023-12-29T12:24:59;10.40;1.00
837;DHT22;400;53.550;9.932;2023-12-29T12:27:27;10.40;1.00
837;DHT22;400;53.550;9.932;2023-12-29T12:29:56;10.50;1.00
837;DHT22;400;53.550;9.932;2023-12-29T12:32:25;10.40;1.00
837;DHT22;400;53.550;9.932;2023-12-29T12:34:52;10.50;1.00
837;DHT22;400;53.550;9.932;2023-12-29T12:37:20;10.50;1.00
837;DHT22;400;53.550;9.932;2023-12-29T12:39:47;10.50;1.00
837;DHT22;400;53.550;9.932;2023-12-29T12:42:16;10.50;1.00
837;DHT22;400;53.550;9.932;2023-12-29T12:44:49;10.60;1.00
837;DHT22;400;53.550;9.932;2023-12-29T12:47:27;10.60;1.00
837;DHT22;400;53.550;9.932;2023-12-29T12:49:55;10.50;1.00
837;DHT22;400;53.550;9.932;2023-12-29T12:52:23;10.50;1.00
837;DHT22;400;53.550;9.932;2023-12-29T12:54:55;10.50;1.00
837;DHT22;400;53.550;9.932;2023-12-29T12:57:26;10.50;1.00
837;DHT22;400;53.550;9.932;2023-12-29T12:59:55;10.60;1.00
837;DHT22;400;53.550;9.932;2023-12-29T13:02:27;10.60;1.00
837;DHT22;400;53.550;9.932;2023-12-29T13:04:56;10.60;1.00
837;DHT22;400;53.550;9.932;2023-12-29T13:07:24;10.70;1.00
837;DHT22;400;53.550;9.932;2023-12-29T13:09:53;10.70;1.00
837;DHT22;400;53.550;9.932;2023-12-29T13:12:20;10.60;1.00
837;DHT22;400;53.550;9.932;2023-12-29T13:14:49;10.70;1.00
837;DHT22;400;53.550;9.932;2023-12-29T13:17:17;10.70;1.00
837;DHT22;400;53.550;9.932;2023-12-29T13:19:46;10.60;1.00
837;DHT22;400;53.550;9.932;2023-12-29T13:22:22;10.70;1.00
837;DHT22;400;53.550;9.932;2023-12-29T13:24:52;10.70;1.00
837;DHT22;400;53.550;9.932;2023-12-29T13:27:22;10.70;1.00
837;DHT22;400;53.550;9.932;2023-12-29T13:29:51;10.70;1.00
837;DHT22;400;53.550;9.932;2023-12-29T13:32:21;10.70;1.00
837;DHT22;400;53.550;9.932;2023-12-29T13:35:04;10.60;1.00
837;DHT22;400;53.550;9.932;2023-12-29T13:37:42;10.50;1.00
837;DHT22;400;53.550;9.932;2023-12-29T13:40:16;10.50;1.00
837;DHT22;400;53.550;9.932;2023-12-29T13:42:46;10.50;1.00
837;DHT22;400;53.550;9.932;2023-12-29T13:45:15;10.50;1.00
837;DHT22;400;53.550;9.932;2023-12-29T13:47:43;10.50;1.00
837;DHT22;400;53.550;9.932;2023-12-29T13:50:11;10.40;1.00
837;DHT22;400;53.550;9.932;2023-12-29T13:52:43;10.40;1.00
837;DHT22;400;53.550;9.932;2023-12-29T13:55:21;10.30;1.00
837;DHT22;400;53.550;9.932;2023-12-29T13:57:49;10.10;1.00
837;DHT22;400;53.550;9.932;2023-12-29T14:00:19;10.20;1.00
837;DHT22;400;53.550;9.932;2023-12-29T14:02:48;10.20;1.00
837;DHT22;400;53.550;9.932;2023-12-29T14:05:27;10.20;1.00
837;DHT22;400;53.550;9.932;2023-12-29T14:07:59;10.30;1.00
837;DHT22;400;53.550;9.932;2023-12-29T14:10:29;10.30;1.00
837;DHT22;400;53.550;9.932;2023-12-29T14:13:04;10.20;1.00
837;DHT22;400;53.550;9.932;2023-12-29T14:15:38;10.10;1.00
837;DHT22;400;53.550;9.932;2023-12-29T14:18:17;10.10;1.00
837;DHT22;400;53.550;9.932;2023-12-29T14:20:49;10.00;1.00
837;DHT22;400;53.550;9.932;2023-12-29T14:23:18;10.00;1.00
837;DHT22;400;53.550;9.932;2023-12-29T14:25:48;9.90;1.00
837;DHT22;400;53.550;9.932;2023-12-29T14:28:16;10.00;1.00
837;DHT22;400;53.550;9.932;2023-12-29T14:30:45;10.00;1.00
837;DHT22;400;53.550;9.932;2023-12-29T14:33:16;10.00;1.00
837;DHT22;400;53.550;9.932;2023-12-29T14:35:43;10.00;1.00
837;DHT22;400;53.550;9.932;2023-12-29T14:38:12;9.90;1.00
837;DHT22;400;53.550;9.932;2023-12-29T14:40:47;10.00;1.00
837;DHT22;400;53.550;9.932;2023-12-29T14:43:17;10.10;1.00
837;DHT22;400;53.550;9.932;2023-12-29T14:45:47;10.10;1.00
837;DHT22;400;53.550;9.932;2023-12-29T14:48:15;10.10;1.00
837;DHT22;400;53.550;9.932;2023-12-29T14:50:42;10.00;1.00
837;DHT22;400;53.550;9.932;2023-12-29T14:53:11;9.90;1.00
837;DHT22;400;53.550;9.932;2023-12-29T14:55:39;10.00;1.00
837;DHT22;400;53.550;9.932;2023-12-29T14:58:07;10.00;1.00
837;DHT22;400;53.550;9.932;2023-12-29T15:00:34;10.00;1.00
837;DHT22;400;53.550;9.932;2023-12-29T15:03:02;10.00;1.00
837;DHT22;400;53.550;9.932;2023-12-29T15:05:30;10.00;1.00
837;DHT22;400;53.550;9.932;2023-12-29T15:08:03;10.00;1.00
837;DHT22;400;53.550;9.932;2023-12-29T15:10:37;10.00;1.00
837;DHT22;400;53.550;9.932;2023-12-29T15:13:06;10.10;1.00
837;DHT22;400;53.550;9.932;2023-12-29T15:15:33;10.10;1.00
837;DHT22;400;53.550;9.932;2023-12-29T15:18:04;10.10;1.00
837;DHT22;400;53.550;9.932;2023-12-29T15:20:32;10.20;1.00
837;DHT22;400;53.550;9.932;2023-12-29T15:22:59;10.10;1.00
837;DHT22;400;53.550;9.932;2023-12-29T15:25:29;10.10;1.00
837;DHT22;400;53.550;9.932;2023-12-29T15:27:57;10.20;1.00
837;DHT22;400;53.550;9.932;2023-12-29T15:30:26;10.10;1.00
837;DHT22;400;53.550;9.932;2023-12-29T15:32:58;10.20;1.00
837;DHT22;400;53.550;9.932;2023-12-29T15:35:28;10.10;1.00
837;DHT22;400;53.550;9.932;2023-12-29T15:37:55;10.10;1.00
837;DHT22;400;53.550;9.932;2023-12-29T15:40:22;10.10;1.00
837;DHT22;400;53.550;9.932;2023-12-29T15:42:49;10.20;1.00
837;DHT22;400;53.550;9.932;2023-12-29T15:45:16;10.20;1.00
837;DHT22;400;53.550;9.932;2023-12-29T15:47:44;10.20;1.00
837;DHT22;400;53.550;9.932;2023-12-29T15:50:12;10.20;1.00
837;DHT22;400;53.550;9.932;2023-12-29T15:52:41;10.20;1.00
837;DHT22;400;53.550;9.932;2023-12-29T15:55:08;10.20;1.00
837;DHT22;400;53.550;9.932;2023-12-29T15:57:35;10.10;1.00
837;DHT22;400;53.550;9.932;2023-12-29T16:00:02;10.00;1.00
837;DHT22;400;53.550;9.932;2023-12-29T16:02:34;10.00;1.00
837;DHT22;400;53.550;9.932;2023-12-29T16:05:05;10.00;1.00
837;DHT22;400;53.550;9.932;2023-12-29T16:07:38;10.10;1.00
837;DHT22;400;53.550;9.932;2023-12-29T16:10:14;10.10;1.00
837;DHT22;400;53.550;9.932;2023-12-29T16:12:41;10.10;1.00
837;DHT22;400;53.550;9.932;2023-12-29T16:15:09;10.10;1.00
837;DHT22;400;53.550;9.932;2023-12-29T16:17:36;10.00;1.00
837;DHT22;400;53.550;9.932;2023-12-29T16:20:05;10.10;1.00
837;DHT22;400;53.550;9.932;2023-12-29T16:22:32;9.90;1.00
837;DHT22;400;53.550;9.932;2023-12-29T16:24:59;9.80;1.00
837;DHT22;400;53.550;9.932;2023-12-29T16:27:27;9.80;1.00
837;DHT22;400;53.550;9.932;2023-12-29T16:29:54;9.90;1.00
837;DHT22;400;53.550;9.932;2023-12-29T16:32:21;9.70;1.00
837;DHT22;400;53.550;9.932;2023-12-29T16:34:50;9.80;1.00
837;DHT22;400;53.550;9.932;2023-12-29T16:37:19;9.80;1.00
837;DHT22;400;53.550;9.932;2023-12-29T16:39:49;9.80;1.00
837;DHT22;400;53.550;9.932;2023-12-29T16:42:18;9.70;1.00
837;DHT22;400;53.550;9.932;2023-12-29T16:44:46;9.70;1.00
837;DHT22;400;53.550;9.932;2023-12-29T16:47:14;9.80;1.00
837;DHT22;400;53.550;9.932;2023-12-29T16:49:45;9.60;1.00
837;DHT22;400;53.550;9.932;2023-12-29T16:52:16;9.70;1.00
837;DHT22;400;53.550;9.932;2023-12-29T16:54:45;9.80;1.00
837;DHT22;400;53.550;9.932;2023-12-29T16:57:12;9.80;1.00
837;DHT22;400;53.550;9.932;2023-12-29T16:59:38;9.90;1.00
837;DHT22;400;53.550;9.932;2023-12-29T17:02:10;9.80;1.00
837;DHT22;400;53.550;9.932;2023-12-29T17:04:43;9.90;1.00
837;DHT22;400;53.550;9.932;2023-12-29T17:07:12;9.90;1.00
837;DHT22;400;53.550;9.932;2023-12-29T17:09:40;9.70;1.00
837;DHT22;400;53.550;9.932;2023-12-29T17:12:09;9.80;1.00